createdAt,value
2022-09-11T00:00:05.061Z,8.43
2022-09-11T00:03:00.219Z,8.70
2022-09-11T00:05:46.870Z,8.03
2022-09-11T00:08:32.961Z,9.20
2022-09-11T00:11:19.633Z,9.23
2022-09-11T00:14:05.649Z,9.60
2022-09-11T00:16:51.716Z,9.40
2022-09-11T00:19:42.164Z,9.30
2022-09-11T00:22:28.474Z,9.80
2022-09-11T00:25:15.787Z,9.70
2022-09-11T00:28:02.185Z,10.30
2022-09-11T00:30:57.308Z,10.70
2022-09-11T00:33:45.243Z,10.17
2022-09-11T00:36:31.747Z,10.60
2022-09-11T00:39:18.048Z,10.47
2022-09-11T00:42:05.297Z,10.40
2022-09-11T00:44:51.646Z,10.47
2022-09-11T00:47:37.431Z,11.03
2022-09-11T00:50:24.379Z,10.27
2022-09-11T00:53:12.161Z,11.67
2022-09-11T00:56:01.804Z,10.30
2022-09-11T00:58:51.762Z,11.13
2022-09-11T01:01:39.163Z,11.73
2022-09-11T01:04:25.385Z,9.80
2022-09-11T01:07:12.828Z,10.30
2022-09-11T01:09:59.980Z,12.07
2022-09-11T01:12:45.732Z,10.80
2022-09-11T01:15:36.107Z,10.03
2022-09-11T01:18:27.370Z,9.93
2022-09-11T01:21:34.574Z,10.50
2022-09-11T01:24:26.985Z,11.27
2022-09-11T01:27:19.852Z,10.83
2022-09-11T01:30:11.480Z,10.60
2022-09-11T01:33:11.198Z,11.40
2022-09-11T01:36:06.206Z,11.70
2022-09-11T01:38:55.085Z,13.40
2022-09-11T01:41:46.059Z,12.03
2022-09-11T01:44:37.852Z,13.80
2022-09-11T01:47:27.968Z,13.37
2022-09-11T01:50:16.271Z,11.77
2022-09-11T01:53:04.325Z,10.70
2022-09-11T01:55:55.567Z,12.90
2022-09-11T01:58:43.532Z,12.30
2022-09-11T02:01:31.741Z,14.60
2022-09-11T02:04:20.028Z,13.13
2022-09-11T02:07:12.081Z,14.33
2022-09-11T02:10:01.486Z,12.47
2022-09-11T02:12:53.443Z,12.00
2022-09-11T02:15:43.084Z,11.77
2022-09-11T02:19:07.932Z,12.90
2022-09-11T02:21:54.157Z,13.77
2022-09-11T02:24:41.539Z,13.90
2022-09-11T02:27:28.242Z,13.53
2022-09-11T02:30:15.248Z,14.67
2022-09-11T02:33:01.793Z,15.13
2022-09-11T02:35:51.202Z,14.70
2022-09-11T02:38:44.729Z,17.23
2022-09-11T02:41:38.427Z,14.07
2022-09-11T02:44:40.257Z,14.60
2022-09-11T02:47:28.913Z,15.03
2022-09-11T02:50:21.805Z,13.03
2022-09-11T02:53:11.884Z,13.50
2022-09-11T02:56:02.553Z,13.83
2022-09-11T02:58:55.512Z,13.30
2022-09-11T03:01:52.994Z,15.17
2022-09-11T03:04:42.014Z,14.53
2022-09-11T03:07:28.072Z,15.27
2022-09-11T03:10:13.824Z,14.80
2022-09-11T03:12:59.681Z,16.00
2022-09-11T03:15:45.515Z,14.30
2022-09-11T03:18:33.057Z,15.67
2022-09-11T03:21:20.104Z,14.60
2022-09-11T03:24:06.266Z,14.83
2022-09-11T03:26:54.407Z,15.50
2022-09-11T03:29:40.729Z,14.00
2022-09-11T03:32:26.219Z,14.50
2022-09-11T03:35:15.030Z,14.67
2022-09-11T03:38:00.768Z,14.17
2022-09-11T03:40:46.500Z,15.60
2022-09-11T03:43:32.891Z,14.10
2022-09-11T03:46:19.381Z,14.00
2022-09-11T03:49:09.399Z,15.20
2022-09-11T03:51:56.905Z,15.07
2022-09-11T03:54:42.824Z,13.57
2022-09-11T03:57:28.648Z,17.00
2022-09-11T04:00:14.324Z,14.30
2022-09-11T04:03:06.139Z,14.30
2022-09-11T04:05:59.628Z,12.80
2022-09-11T04:08:45.603Z,14.80
2022-09-11T04:11:37.322Z,13.47
2022-09-11T04:14:25.081Z,12.33
2022-09-11T04:17:13.024Z,10.67
2022-09-11T04:19:58.815Z,11.20
2022-09-11T04:22:44.732Z,12.50
2022-09-11T04:25:32.275Z,11.77
2022-09-11T04:28:19.882Z,12.50
2022-09-11T04:31:05.924Z,14.40
2022-09-11T04:33:57.045Z,12.00
2022-09-11T04:36:49.535Z,11.83
2022-09-11T04:39:39.527Z,13.30
2022-09-11T04:42:26.312Z,13.20
2022-09-11T04:45:13.112Z,13.03
2022-09-11T04:47:58.757Z,13.50
2022-09-11T04:50:45.342Z,12.53
2022-09-11T04:53:39.984Z,12.80
2022-09-11T04:56:29.084Z,14.73
2022-09-11T04:59:17.160Z,16.20
2022-09-11T05:02:07.622Z,14.63
2022-09-11T05:04:58.734Z,14.00
2022-09-11T05:07:44.517Z,15.37
2022-09-11T05:10:30.863Z,14.60
2022-09-11T05:13:17.567Z,13.00
2022-09-11T05:16:03.779Z,13.53
2022-09-11T05:18:52.058Z,13.50
2022-09-11T05:21:39.366Z,12.93
2022-09-11T05:24:24.978Z,14.03
2022-09-11T05:27:11.574Z,14.43
2022-09-11T05:29:59.812Z,13.77
2022-09-11T05:32:48.109Z,14.37
2022-09-11T05:35:34.185Z,14.50
2022-09-11T05:38:20.309Z,15.00
2022-09-11T05:41:07.364Z,15.30
2022-09-11T05:43:54.053Z,16.70
2022-09-11T05:46:39.562Z,16.67
2022-09-11T05:49:25.638Z,16.70
2022-09-11T05:52:11.542Z,17.20
2022-09-11T05:54:58.064Z,19.50
2022-09-11T05:57:44.795Z,18.30
2022-09-11T06:00:32.097Z,17.67
2022-09-11T06:03:21.514Z,19.30
2022-09-11T06:06:08.232Z,19.43
2022-09-11T06:08:55.864Z,18.70
2022-09-11T06:11:41.782Z,19.87
2022-09-11T06:14:28.052Z,19.07
2022-09-11T06:17:13.885Z,18.87
2022-09-11T06:19:59.884Z,19.10
2022-09-11T06:22:45.641Z,19.80
2022-09-11T06:25:32.175Z,18.83
2022-09-11T06:28:18.193Z,20.00
2022-09-11T06:31:07.725Z,19.50
2022-09-11T06:33:54.891Z,19.93
2022-09-11T06:36:40.773Z,19.60
2022-09-11T06:39:27.180Z,20.60
2022-09-11T06:42:13.410Z,22.70
2022-09-11T06:44:59.160Z,20.20
2022-09-11T06:47:48.165Z,23.63
2022-09-11T06:50:40.173Z,24.30
2022-09-11T06:53:26.188Z,22.23
2022-09-11T06:56:14.295Z,22.00
2022-09-11T06:59:01.814Z,24.10
2022-09-11T07:01:50.196Z,22.33
2022-09-11T07:04:36.335Z,21.90
2022-09-11T07:07:21.890Z,23.50
2022-09-11T07:10:10.712Z,24.93
2022-09-11T07:12:57.143Z,24.40
2022-09-11T07:15:43.523Z,25.33
2022-09-11T07:18:36.262Z,26.70
2022-09-11T07:21:26.660Z,25.17
2022-09-11T07:24:16.718Z,25.03
2022-09-11T07:27:03.467Z,23.83
2022-09-11T07:29:53.688Z,26.20
2022-09-11T07:32:39.624Z,25.00
2022-09-11T07:35:27.186Z,26.30
2022-09-11T07:38:14.224Z,25.60
2022-09-11T07:41:02.835Z,25.90
2022-09-11T07:43:52.765Z,24.00
2022-09-11T07:46:42.224Z,24.40
2022-09-11T07:49:30.274Z,23.90
2022-09-11T07:52:18.670Z,24.93
2022-09-11T07:55:10.120Z,22.57
2022-09-11T07:57:56.293Z,22.40
2022-09-11T08:00:42.562Z,22.30
2022-09-11T08:03:36.396Z,24.60
2022-09-11T08:06:23.839Z,23.20
2022-09-11T08:09:14.934Z,23.43
2022-09-11T08:12:05.185Z,22.03
2022-09-11T08:14:53.239Z,21.90
2022-09-11T08:17:41.063Z,20.77
2022-09-11T08:20:26.536Z,22.40
2022-09-11T08:23:15.222Z,21.60
2022-09-11T08:26:07.987Z,20.90
2022-09-11T08:28:57.197Z,24.00
2022-09-11T08:31:45.201Z,20.30
2022-09-11T08:34:31.812Z,20.83
2022-09-11T08:37:18.183Z,21.90
2022-09-11T08:40:07.692Z,21.03
2022-09-11T08:42:56.182Z,21.10
2022-09-11T08:45:42.518Z,21.70
2022-09-11T08:48:48.752Z,22.33
2022-09-11T08:51:34.546Z,21.60
2022-09-11T08:54:27.564Z,22.37
2022-09-11T08:57:29.106Z,20.87
2022-09-11T09:00:24.680Z,21.80
2022-09-11T09:03:26.068Z,23.97
2022-09-11T09:06:23.731Z,25.20
2022-09-11T09:09:23.000Z,22.10
2022-09-11T09:12:26.030Z,22.33
2022-09-11T09:15:34.901Z,23.10
2022-09-11T09:18:35.317Z,20.33
2022-09-11T09:21:25.017Z,19.50
2022-09-11T09:24:19.148Z,20.97
2022-09-11T09:27:07.624Z,20.70
2022-09-11T09:29:55.717Z,21.47
2022-09-11T09:32:51.657Z,20.70
2022-09-11T09:35:41.969Z,21.50
2022-09-11T09:38:31.304Z,19.50
2022-09-11T09:41:44.021Z,20.90
2022-09-11T09:44:49.193Z,21.33
2022-09-11T09:47:35.446Z,20.53
2022-09-11T09:50:23.708Z,20.27
2022-09-11T09:53:16.380Z,20.10
2022-09-11T09:56:02.743Z,20.40
2022-09-11T09:59:02.806Z,19.13
2022-09-11T10:01:53.875Z,18.90
2022-09-11T10:04:39.832Z,18.83
2022-09-11T10:07:25.966Z,19.50
2022-09-11T10:10:21.363Z,24.80
2022-09-11T10:13:24.781Z,95.03
2022-09-11T10:16:25.816Z,18.40
2022-09-11T10:19:31.240Z,21.13
2022-09-11T10:22:21.545Z,19.53
2022-09-11T10:25:07.495Z,18.33
2022-09-11T10:27:56.755Z,19.80
2022-09-11T10:30:46.147Z,20.70
2022-09-11T10:33:37.036Z,19.10
2022-09-11T10:36:27.353Z,18.93
2022-09-11T10:39:17.056Z,19.10
2022-09-11T10:42:12.304Z,20.77
2022-09-11T10:45:08.548Z,18.70
2022-09-11T10:47:54.383Z,16.80
2022-09-11T10:50:39.989Z,19.20
2022-09-11T10:53:26.026Z,17.03
2022-09-11T10:56:12.157Z,17.07
2022-09-11T10:59:02.144Z,16.93
2022-09-11T11:01:48.039Z,17.23
2022-09-11T11:04:33.622Z,15.73
2022-09-11T11:07:28.535Z,16.00
2022-09-11T11:10:22.563Z,17.53
2022-09-11T11:13:18.085Z,14.53
2022-09-11T11:16:10.650Z,16.60
2022-09-11T11:19:06.790Z,17.07
2022-09-11T11:22:11.323Z,15.30
2022-09-11T11:25:15.780Z,13.40
2022-09-11T11:28:07.860Z,14.07
2022-09-11T11:31:16.321Z,13.47
2022-09-11T11:34:09.105Z,13.10
2022-09-11T11:37:05.041Z,14.10
2022-09-11T11:40:02.712Z,12.60
2022-09-11T11:42:56.406Z,14.63
2022-09-11T11:45:48.090Z,14.37
2022-09-11T11:48:45.122Z,17.67
2022-09-11T11:51:51.244Z,15.77
2022-09-11T11:54:39.989Z,15.87
2022-09-11T11:57:27.411Z,14.63
2022-09-11T12:00:14.816Z,14.63
2022-09-11T12:03:27.064Z,16.90
2022-09-11T12:06:12.830Z,14.40
2022-09-11T12:08:58.823Z,11.30
2022-09-11T12:11:47.243Z,14.60
2022-09-11T12:14:34.139Z,10.43
2022-09-11T12:17:29.656Z,10.20
2022-09-11T12:20:29.747Z,10.63
2022-09-11T12:23:30.704Z,11.30
2022-09-11T12:26:21.589Z,11.00
2022-09-11T12:29:14.382Z,11.13
2022-09-11T12:32:00.192Z,10.53
2022-09-11T12:34:46.812Z,10.30
2022-09-11T12:37:38.591Z,10.63
2022-09-11T12:40:27.851Z,10.07
2022-09-11T12:43:28.353Z,9.50
2022-09-11T12:46:23.161Z,9.60
2022-09-11T12:49:25.764Z,10.47
2022-09-11T12:52:20.301Z,10.27
2022-09-11T12:55:21.586Z,10.10
2022-09-11T12:58:19.357Z,9.00
2022-09-11T13:01:15.984Z,8.80
2022-09-11T13:04:14.963Z,9.03
2022-09-11T13:07:05.275Z,9.93
2022-09-11T13:09:52.223Z,9.37
2022-09-11T13:12:53.771Z,9.43
2022-09-11T13:15:41.379Z,9.50
2022-09-11T13:18:35.491Z,9.80
2022-09-11T13:21:26.235Z,11.53
2022-09-11T13:24:34.528Z,8.80
2022-09-11T13:27:24.459Z,8.40
2022-09-11T13:30:13.366Z,8.27
2022-09-11T13:32:59.757Z,8.93
2022-09-11T13:35:46.369Z,8.97
2022-09-11T13:38:34.154Z,9.33
2022-09-11T13:41:23.600Z,8.57
2022-09-11T13:44:13.944Z,8.60
2022-09-11T13:47:00.443Z,7.80
2022-09-11T13:49:47.145Z,7.23
2022-09-11T13:52:34.564Z,7.60
2022-09-11T13:55:22.205Z,7.77
2022-09-11T13:58:22.088Z,7.60
2022-09-11T14:01:16.606Z,7.70
2022-09-11T14:04:04.389Z,7.77
2022-09-11T14:06:50.727Z,8.17
2022-09-11T14:09:36.524Z,8.17
2022-09-11T14:12:22.278Z,7.30
2022-09-11T14:15:11.670Z,8.23
2022-09-11T14:17:57.349Z,8.57
2022-09-11T14:20:44.462Z,8.30
2022-09-11T14:23:31.180Z,8.87
2022-09-11T14:26:18.348Z,8.43
2022-09-11T14:29:25.414Z,8.27
2022-09-11T14:32:34.829Z,8.77
2022-09-11T14:35:20.857Z,8.00
2022-09-11T14:38:06.928Z,9.10
2022-09-11T14:40:58.447Z,8.73
2022-09-11T14:43:48.865Z,8.00
2022-09-11T14:46:34.842Z,8.20
2022-09-11T14:49:21.885Z,8.60
2022-09-11T14:52:07.870Z,8.90
2022-09-11T14:55:00.517Z,8.87
2022-09-11T14:57:46.706Z,9.87
2022-09-11T15:00:34.021Z,8.60
2022-09-11T15:03:20.304Z,8.40
2022-09-11T15:06:05.951Z,8.33
2022-09-11T15:08:54.766Z,9.43
2022-09-11T15:11:41.770Z,9.23
2022-09-11T15:14:54.448Z,8.50
2022-09-11T15:17:36.204Z,8.20
2022-09-11T15:20:25.313Z,8.70
2022-09-11T15:23:12.475Z,8.87
2022-09-11T15:26:02.449Z,9.63
2022-09-11T15:28:50.823Z,10.60
2022-09-11T15:31:37.483Z,8.70
2022-09-11T15:34:23.464Z,8.97
2022-09-11T15:37:09.204Z,8.87
2022-09-11T15:39:54.659Z,10.80
2022-09-11T15:42:40.496Z,9.30
2022-09-11T15:45:29.031Z,10.57
2022-09-11T15:48:14.775Z,10.30
2022-09-11T15:51:01.206Z,10.90
2022-09-11T15:53:47.053Z,10.13
2022-09-11T15:56:35.835Z,8.50
2022-09-11T15:59:21.985Z,9.57
2022-09-11T16:02:09.219Z,9.57
2022-09-11T16:04:55.370Z,10.73
2022-09-11T16:07:41.736Z,10.03
2022-09-11T16:10:29.160Z,9.30
2022-09-11T16:13:17.183Z,9.90
2022-09-11T16:16:04.340Z,10.00
2022-09-11T16:18:50.502Z,9.40
2022-09-11T16:21:36.794Z,9.33
2022-09-11T16:24:23.509Z,9.57
2022-09-11T16:27:10.108Z,8.40
2022-09-11T16:33:02.192Z,8.40
2022-09-11T16:36:05.598Z,7.73
2022-09-11T16:38:54.393Z,8.30
2022-09-11T16:41:40.823Z,7.53
2022-09-11T16:44:30.336Z,8.00
2022-09-11T16:47:17.284Z,8.83
2022-09-11T16:50:07.280Z,7.60
2022-09-11T16:52:54.760Z,8.33
2022-09-11T16:55:42.430Z,8.77
2022-09-11T16:58:28.817Z,8.20
2022-09-11T17:01:15.309Z,8.70
2022-09-11T17:04:01.644Z,8.00
2022-09-11T17:06:49.680Z,9.23
2022-09-11T17:09:35.505Z,8.93
2022-09-11T17:12:22.373Z,7.90
2022-09-11T17:15:08.774Z,8.27
2022-09-11T17:17:54.614Z,9.10
2022-09-11T17:20:40.635Z,8.40
2022-09-11T17:23:26.867Z,8.53
2022-09-11T17:26:14.028Z,8.33
2022-09-11T17:29:02.948Z,8.23
2022-09-11T17:31:48.675Z,7.70
2022-09-11T17:34:34.604Z,8.70
2022-09-11T17:37:20.176Z,9.53
2022-09-11T17:40:07.223Z,13.83
2022-09-11T17:42:53.348Z,15.03
2022-09-11T17:45:39.687Z,13.50
2022-09-11T17:48:25.405Z,11.73
2022-09-11T17:51:13.627Z,10.43
2022-09-11T17:54:00.172Z,11.40
2022-09-11T17:56:45.976Z,12.07
2022-09-11T17:59:31.729Z,12.90
2022-09-11T18:02:18.223Z,11.70
2022-09-11T18:05:04.095Z,10.77
2022-09-11T18:07:50.828Z,11.03
2022-09-11T18:10:36.557Z,11.10
2022-09-11T18:13:22.055Z,13.73
2022-09-11T18:16:11.361Z,12.43
2022-09-11T18:18:58.594Z,10.93
2022-09-11T18:21:48.036Z,10.60
2022-09-11T18:24:35.894Z,12.50
2022-09-11T18:27:21.303Z,12.20
2022-09-11T18:30:07.741Z,13.10
2022-09-11T18:32:55.699Z,11.60
2022-09-11T18:35:41.365Z,12.17
2022-09-11T18:38:32.957Z,11.33
2022-09-11T18:41:19.237Z,11.70
2022-09-11T18:44:07.192Z,12.37
2022-09-11T18:46:56.332Z,11.30
2022-09-11T18:49:42.183Z,11.57
2022-09-11T18:52:30.630Z,11.80
2022-09-11T18:55:22.695Z,10.77
2022-09-11T18:58:08.335Z,11.20
2022-09-11T19:00:56.187Z,10.23
2022-09-11T19:03:43.928Z,10.97
2022-09-11T19:06:29.977Z,10.37
2022-09-11T19:09:15.942Z,12.10
2022-09-11T19:12:03.382Z,13.07
2022-09-11T19:14:50.444Z,11.83
2022-09-11T19:17:36.672Z,12.47
2022-09-11T19:20:22.319Z,16.00
2022-09-11T19:23:11.721Z,15.30
2022-09-11T19:26:02.729Z,13.97
2022-09-11T19:28:51.304Z,13.57
2022-09-11T19:31:39.003Z,15.30
2022-09-11T19:34:25.787Z,14.97
2022-09-11T19:37:13.542Z,14.90
2022-09-11T19:40:00.704Z,15.80
2022-09-11T19:42:46.552Z,14.43
2022-09-11T19:45:33.635Z,14.13
2022-09-11T19:48:19.630Z,14.87
2022-09-11T19:51:08.972Z,14.53
2022-09-11T19:53:56.258Z,14.00
2022-09-11T19:56:44.161Z,14.17
2022-09-11T19:59:30.184Z,14.20
2022-09-11T20:02:17.217Z,13.33
2022-09-11T20:05:03.132Z,14.20
2022-09-11T20:07:48.646Z,13.80
2022-09-11T20:10:34.633Z,15.30
2022-09-11T20:13:21.076Z,14.27
2022-09-11T20:16:11.263Z,12.63
2022-09-11T20:18:57.775Z,14.97
2022-09-11T20:21:44.547Z,13.77
2022-09-11T20:24:30.454Z,14.63
2022-09-11T20:27:16.838Z,13.80
2022-09-11T20:30:02.910Z,18.17
2022-09-11T20:32:50.240Z,14.43
2022-09-11T20:35:35.825Z,14.13
2022-09-11T20:38:23.072Z,13.47
2022-09-11T20:41:12.982Z,13.90
2022-09-11T20:44:00.521Z,14.10
2022-09-11T20:46:47.515Z,17.10
2022-09-11T20:49:33.448Z,14.03
2022-09-11T20:52:19.249Z,13.57
2022-09-11T20:55:05.161Z,14.03
2022-09-11T20:57:50.747Z,14.73
2022-09-11T21:00:38.210Z,13.47
2022-09-11T21:03:23.850Z,13.77
2022-09-11T21:06:09.565Z,14.90
2022-09-11T21:08:56.729Z,15.20
2022-09-11T21:11:42.804Z,14.97
2022-09-11T21:14:28.396Z,13.83
2022-09-11T21:17:14.230Z,15.07
2022-09-11T21:20:00.065Z,15.07
2022-09-11T21:22:46.382Z,14.57
2022-09-11T21:25:32.322Z,14.10
2022-09-11T21:28:18.455Z,14.70
2022-09-11T21:31:04.754Z,15.30
2022-09-11T21:33:51.368Z,14.03
2022-09-11T21:36:37.351Z,14.50
2022-09-11T21:39:23.131Z,14.27
2022-09-11T21:42:11.915Z,14.90
2022-09-11T21:44:58.015Z,15.90
2022-09-11T21:47:45.140Z,14.57
2022-09-11T21:50:30.884Z,13.80
2022-09-11T21:53:16.419Z,13.37
2022-09-11T21:56:02.096Z,15.00
2022-09-11T21:58:50.348Z,14.73
2022-09-11T22:01:36.694Z,13.63
2022-09-11T22:04:23.183Z,15.30
2022-09-11T22:07:10.944Z,13.07
2022-09-11T22:09:56.843Z,13.03
2022-09-11T22:12:42.640Z,13.70
2022-09-11T22:15:28.530Z,13.53
2022-09-11T22:18:14.913Z,13.97
2022-09-11T22:21:01.389Z,12.80
2022-09-11T22:23:47.650Z,15.70
2022-09-11T22:26:33.897Z,14.03
2022-09-11T22:29:19.657Z,13.20
2022-09-11T22:32:06.130Z,11.90
2022-09-11T22:34:52.075Z,13.90
2022-09-11T22:37:37.939Z,13.60
2022-09-11T22:40:23.976Z,12.73
2022-09-11T22:43:10.136Z,12.40
2022-09-11T22:45:57.864Z,11.70
2022-09-11T22:48:44.226Z,12.07
2022-09-11T22:51:34.404Z,12.40
2022-09-11T22:54:21.878Z,12.73
2022-09-11T22:57:09.164Z,13.20
2022-09-11T22:59:56.282Z,12.30
2022-09-11T23:02:42.059Z,13.77
2022-09-11T23:05:47.976Z,12.20
2022-09-11T23:08:40.320Z,12.47
2022-09-11T23:11:28.995Z,12.03
2022-09-11T23:14:15.334Z,13.60
2022-09-11T23:17:02.545Z,12.30
2022-09-11T23:19:48.850Z,13.70
2022-09-11T23:22:34.597Z,13.07
2022-09-11T23:25:21.010Z,12.67
2022-09-11T23:28:07.072Z,14.10
2022-09-11T23:30:53.017Z,13.87
2022-09-11T23:33:38.912Z,13.60
2022-09-11T23:36:25.024Z,12.63
2022-09-11T23:39:11.864Z,13.00
2022-09-11T23:41:58.036Z,12.00
2022-09-11T23:44:44.419Z,13.73
2022-09-11T23:47:30.274Z,12.37
2022-09-11T23:50:18.304Z,13.40
2022-09-11T23:53:04.291Z,13.27
2022-09-11T23:55:50.803Z,12.23
2022-09-11T23:58:46.247Z,10.97
